Time;durP1;ratioP1;P1;durP2;ratioP2;P2;SDS_P1;SDS_P2;PMS_P1;PMS_P2;Temp;Humidity;BMP_temperature;BMP_pressure;BME280_temperature;BME280_humidity;BME280_pressure;Samples;Min_cycle;Max_cycle;Signal;HPM_P1;HPM_P2
2022/05/12 00:00:21;;;;;;;6.05;1.00;;;12.60;99.90;;;;;;5027828;28;20772;-71
2022/05/12 00:02:47;;;;;;;5.15;0.90;;;12.50;99.90;;;;;;5024004;28;20192;-71
2022/05/12 00:05:14;;;;;;;4.40;0.98;;;12.50;99.90;;;;;;5026636;28;20175;-71
2022/05/12 00:07:43;;;;;;;5.00;0.82;;;12.50;99.90;;;;;;5022065;28;20056;-71
2022/05/12 00:10:11;;;;;;;3.92;0.77;;;12.40;99.90;;;;;;5027628;28;20128;-71
2022/05/12 00:12:38;;;;;;;4.80;1.10;;;12.40;99.90;;;;;;5027641;28;20053;-71
2022/05/12 00:15:07;;;;;;;4.75;0.60;;;12.60;99.90;;;;;;5026777;28;20045;-71
2022/05/12 00:17:32;;;;;;;4.38;0.60;;;12.30;99.90;;;;;;5022811;28;21280;-71
2022/05/12 00:19:58;;;;;;;5.05;0.90;;;12.20;99.90;;;;;;5027902;28;20034;-71
2022/05/12 00:22:24;;;;;;;4.80;0.73;;;12.10;99.90;;;;;;5027843;28;20045;-71
2022/05/12 00:24:49;;;;;;;2.90;0.88;;;12.10;99.90;;;;;;5016091;28;20358;-71
2022/05/12 00:27:15;;;;;;;1.85;0.60;;;12.00;99.90;;;;;;5021454;28;20056;-71
2022/05/12 00:29:40;;;;;;;4.28;0.73;;;12.00;99.90;;;;;;5022183;28;20096;-71
2022/05/12 00:32:06;;;;;;;3.15;0.73;;;11.90;99.90;;;;;;5032678;28;20050;-71
2022/05/12 00:34:32;;;;;;;5.35;0.52;;;11.90;99.90;;;;;;5027210;28;20050;-71
2022/05/12 00:36:57;;;;;;;5.05;0.70;;;11.90;99.90;;;;;;5028162;28;20041;-71
2022/05/12 00:39:23;;;;;;;5.65;0.60;;;11.90;99.90;;;;;;5021704;28;20069;-71
2022/05/12 00:41:49;;;;;;;4.25;0.50;;;11.80;99.90;;;;;;5027966;28;20042;-71
2022/05/12 00:44:16;;;;;;;4.90;0.85;;;11.80;99.90;;;;;;5020545;28;20076;-71
2022/05/12 00:46:43;;;;;;;3.00;0.70;;;11.70;99.90;;;;;;5027274;28;20131;-71
2022/05/12 00:49:29;;;;;;;2.00;0.73;;;11.70;99.90;;;;;;5025562;28;20132;-71
2022/05/12 00:52:12;;;;;;;3.85;0.80;;;11.60;99.90;;;;;;5030851;28;20049;-71
2022/05/12 00:54:55;;;;;;;4.10;0.80;;;11.60;99.90;;;;;;5026483;28;20049;-72
2022/05/12 00:57:49;;;;;;;2.10;0.82;;;11.50;99.90;;;;;;5023419;28;20046;-71
2022/05/12 01:00:15;;;;;;;3.30;0.70;;;11.50;99.90;;;;;;5018289;28;20064;-71
2022/05/12 01:02:44;;;;;;;4.38;0.80;;;11.50;99.90;;;;;;5021951;28;20823;-71
2022/05/12 01:05:10;;;;;;;2.90;0.77;;;11.40;99.90;;;;;;5028066;28;20076;-71
2022/05/12 01:07:36;;;;;;;5.03;0.88;;;11.40;99.90;;;;;;5027875;28;20068;-71
2022/05/12 01:10:04;;;;;;;5.53;0.68;;;11.40;99.90;;;;;;5026695;28;20128;-71
2022/05/12 01:12:31;;;;;;;4.75;0.77;;;11.30;99.90;;;;;;5026927;28;20041;-71
2022/05/12 01:14:56;;;;;;;3.08;0.60;;;11.30;99.90;;;;;;5027279;28;20381;-71
2022/05/12 01:17:24;;;;;;;4.35;0.60;;;11.20;99.90;;;;;;5023690;28;20040;-71
2022/05/12 01:19:51;;;;;;;3.72;0.70;;;11.20;99.90;;;;;;5033227;28;20128;-71
2022/05/12 01:22:44;;;;;;;3.92;0.77;;;11.20;99.90;;;;;;5024691;28;20053;-71
2022/05/12 01:25:13;;;;;;;4.50;0.60;;;11.10;99.90;;;;;;5029388;28;20049;-71
2022/05/12 01:27:42;;;;;;;4.35;0.93;;;11.10;99.90;;;;;;5028138;28;20127;-71
2022/05/12 01:30:10;;;;;;;4.18;0.70;;;11.10;99.90;;;;;;5032469;28;20076;-72
2022/05/12 01:32:36;;;;;;;1.77;0.60;;;11.00;99.90;;;;;;5039610;28;20034;-71
2022/05/12 01:35:02;;;;;;;2.42;0.60;;;10.90;99.90;;;;;;5027454;28;20394;-71
2022/05/12 01:37:27;;;;;;;3.53;0.60;;;10.90;99.90;;;;;;5061136;28;20069;-70
2022/05/12 01:39:53;;;;;;;3.33;0.60;;;10.80;99.90;;;;;;5025921;28;20084;-71
2022/05/12 01:42:19;;;;;;;3.85;0.70;;;10.80;99.90;;;;;;5031215;28;20175;-71
2022/05/12 01:44:45;;;;;;;7.63;1.00;;;10.70;99.90;;;;;;5028170;28;20485;-71
2022/05/12 01:47:12;;;;;;;3.42;0.68;;;10.70;99.90;;;;;;5030741;28;20045;-71
2022/05/12 01:49:38;;;;;;;4.70;1.08;;;10.70;99.90;;;;;;5025838;28;20116;-71
2022/05/12 01:52:07;;;;;;;5.18;1.02;;;10.60;99.90;;;;;;5024295;28;20060;-71
2022/05/12 01:54:33;;;;;;;7.05;0.85;;;10.60;99.90;;;;;;5030784;28;20044;-71
2022/05/12 01:56:59;;;;;;;5.97;0.90;;;10.60;99.90;;;;;;5036428;28;20034;-71
2022/05/12 01:59:25;;;;;;;5.78;0.95;;;10.50;99.90;;;;;;5028173;28;20092;-71
2022/05/12 02:01:52;;;;;;;3.22;0.80;;;10.50;99.90;;;;;;5026378;28;20041;-71
2022/05/12 02:04:18;;;;;;;5.65;1.05;;;10.50;99.90;;;;;;5028324;28;20045;-71
2022/05/12 02:06:44;;;;;;;2.47;0.70;;;10.50;99.90;;;;;;5027795;28;20059;-71
2022/05/12 02:09:10;;;;;;;9.05;1.20;;;10.50;99.90;;;;;;5023678;28;20042;-71
2022/05/12 02:11:36;;;;;;;4.22;0.73;;;10.40;99.90;;;;;;5022223;28;20042;-71
2022/05/12 02:14:04;;;;;;;4.43;1.13;;;10.40;99.90;;;;;;5030298;28;20159;-71
2022/05/12 02:16:31;;;;;;;5.68;1.48;;;10.40;99.90;;;;;;5027070;28;20132;-71
2022/05/12 02:18:56;;;;;;;5.45;1.30;;;10.40;99.90;;;;;;5030634;28;20592;-71
2022/05/12 02:21:22;;;;;;;4.43;1.10;;;10.30;99.90;;;;;;5025721;28;20128;-71
2022/05/12 02:23:48;;;;;;;4.55;1.30;;;10.30;99.90;;;;;;5025674;28;20053;-71
2022/05/12 02:26:14;;;;;;;9.05;1.45;;;10.30;99.90;;;;;;5025141;28;20052;-71
2022/05/12 02:28:40;;;;;;;3.38;1.13;;;10.30;99.90;;;;;;5056859;28;20096;-71
2022/05/12 02:31:06;;;;;;;6.15;1.58;;;10.40;99.90;;;;;;5027984;28;20547;-71
2022/05/12 02:33:32;;;;;;;5.22;1.42;;;10.30;99.90;;;;;;5041802;28;20132;-70
2022/05/12 02:35:57;;;;;;;4.32;1.33;;;10.30;99.90;;;;;;5029106;28;20061;-71
2022/05/12 02:38:23;;;;;;;4.47;1.17;;;10.20;99.90;;;;;;5028707;28;20497;-71
2022/05/12 02:40:49;;;;;;;10.18;1.92;;;10.20;99.90;;;;;;5030409;28;20171;-70
2022/05/12 02:43:24;;;;;;;3.90;1.48;;;10.20;99.90;;;;;;5042600;28;20476;-71
2022/05/12 02:45:55;;;;;;;7.38;1.67;;;10.10;99.90;;;;;;5022064;28;20045;-71
2022/05/12 02:48:24;;;;;;;6.88;1.50;;;10.10;99.90;;;;;;5024925;28;20057;-71
2022/05/12 02:50:50;;;;;;;7.22;1.80;;;10.10;99.90;;;;;;5024822;28;20092;-71
2022/05/12 02:53:16;;;;;;;5.03;2.00;;;10.00;99.90;;;;;;5023263;28;20076;-71
2022/05/12 02:55:44;;;;;;;7.82;1.88;;;10.00;99.90;;;;;;5026723;28;20056;-71
2022/05/12 02:58:11;;;;;;;6.40;1.80;;;10.00;99.90;;;;;;5025423;28;20033;-71
2022/05/12 03:00:40;;;;;;;4.07;1.50;;;10.00;99.90;;;;;;5055204;28;20046;-71
2022/05/12 03:03:07;;;;;;;5.55;1.50;;;9.90;99.90;;;;;;5024750;28;20045;-71
2022/05/12 03:05:34;;;;;;;6.35;1.60;;;10.60;99.90;;;;;;5028245;28;20037;-71
2022/05/12 03:08:00;;;;;;;5.80;2.17;;;9.90;99.90;;;;;;5030005;28;20186;-71
2022/05/12 03:10:26;;;;;;;4.90;1.52;;;9.90;99.90;;;;;;5027093;28;20797;-71
2022/05/12 03:12:52;;;;;;;5.72;1.98;;;9.90;99.90;;;;;;5024986;28;20496;-71
2022/05/12 03:15:18;;;;;;;5.35;1.80;;;9.80;99.90;;;;;;5024278;28;20045;-71
2022/05/12 03:17:44;;;;;;;9.25;2.95;;;9.80;99.90;;;;;;5028620;28;20061;-71
2022/05/12 03:20:13;;;;;;;7.20;1.80;;;9.80;99.90;;;;;;5028326;28;20033;-71
2022/05/12 03:22:39;;;;;;;6.32;2.10;;;9.80;99.90;;;;;;5025145;28;20056;-71
2022/05/12 03:25:10;;;;;;;8.43;2.40;;;9.80;99.90;;;;;;5027649;28;20048;-70
2022/05/12 03:27:36;;;;;;;6.57;2.00;;;9.70;99.90;;;;;;5026172;28;20227;-70
2022/05/12 03:30:03;;;;;;;6.93;1.80;;;9.70;99.90;;;;;;5027396;28;21807;-71
2022/05/12 03:32:28;;;;;;;6.43;2.47;;;9.70;99.90;;;;;;5028998;28;20041;-71
2022/05/12 03:34:54;;;;;;;6.07;2.10;;;9.70;99.90;;;;;;5024155;28;20054;-71
2022/05/12 03:37:19;;;;;;;11.38;2.33;;;9.70;99.90;;;;;;5029134;28;20405;-71
2022/05/12 03:39:45;;;;;;;7.25;2.35;;;9.70;99.90;;;;;;5026195;28;20045;-71
2022/05/12 03:42:12;;;;;;;9.07;2.70;;;9.60;99.90;;;;;;5021183;28;20096;-71
2022/05/12 03:44:47;;;;;;;6.72;1.88;;;9.60;99.90;;;;;;5023983;28;20045;-71
2022/05/12 03:47:21;;;;;;;7.38;2.17;;;9.60;99.90;;;;;;5025375;28;20042;-71
2022/05/12 03:49:55;;;;;;;12.23;2.30;;;9.60;99.90;;;;;;5027571;28;20051;-71
2022/05/12 03:52:21;;;;;;;7.80;2.03;;;9.60;99.90;;;;;;5023966;28;20045;-71
2022/05/12 03:54:48;;;;;;;8.35;1.85;;;9.50;99.90;;;;;;5027245;28;20489;-71
2022/05/12 03:57:15;;;;;;;6.93;2.03;;;9.50;99.90;;;;;;5023884;28;20049;-71
2022/05/12 03:59:42;;;;;;;9.32;3.13;;;9.50;99.90;;;;;;5022663;28;20110;-71
2022/05/12 04:02:09;;;;;;;9.02;2.88;;;9.50;99.90;;;;;;5023627;28;20049;-71
2022/05/12 04:04:35;;;;;;;8.25;2.63;;;9.50;99.90;;;;;;5023219;28;20448;-71
2022/05/12 04:07:02;;;;;;;9.35;2.35;;;9.50;99.90;;;;;;5054498;28;20041;-71
2022/05/12 04:09:28;;;;;;;5.20;2.00;;;9.50;99.90;;;;;;5023624;28;20048;-71
2022/05/12 04:11:54;;;;;;;6.60;2.40;;;9.50;99.90;;;;;;5027238;28;20037;-71
2022/05/12 04:14:20;;;;;;;10.15;2.50;;;9.50;99.90;;;;;;5025391;28;20052;-72
2022/05/12 04:16:46;;;;;;;7.38;2.55;;;9.50;99.90;;;;;;5029282;28;20527;-72
2022/05/12 04:19:12;;;;;;;6.90;2.63;;;9.50;99.90;;;;;;5028371;28;20135;-71
2022/05/12 04:21:38;;;;;;;8.13;2.13;;;9.50;99.90;;;;;;5016277;28;20061;-72
2022/05/12 04:24:06;;;;;;;6.80;2.95;;;9.50;99.90;;;;;;5024472;28;20084;-72
2022/05/12 04:26:36;;;;;;;9.60;3.00;;;9.50;99.90;;;;;;5020649;28;20049;-72
2022/05/12 04:29:05;;;;;;;5.95;2.47;;;9.50;99.90;;;;;;5024596;28;20084;-72
2022/05/12 04:31:31;;;;;;;11.20;3.45;;;9.60;99.90;;;;;;5035652;28;20106;-72
2022/05/12 04:36:43;;;;;;;12.25;3.03;;;9.60;99.90;;;;;;5045305;28;20057;-72
2022/05/12 04:39:09;;;;;;;8.50;3.03;;;9.60;99.90;;;;;;5029748;28;20492;-72
2022/05/12 04:41:35;;;;;;;9.27;2.90;;;9.60;99.90;;;;;;5028710;28;20099;-72
2022/05/12 04:44:02;;;;;;;6.47;2.97;;;9.60;99.90;;;;;;5024437;28;20564;-72
2022/05/12 04:46:28;;;;;;;7.63;3.20;;;9.60;99.90;;;;;;5030459;28;20362;-72
2022/05/12 04:48:54;;;;;;;10.02;3.53;;;9.70;99.90;;;;;;5018305;28;20128;-72
2022/05/12 04:51:20;;;;;;;7.35;2.75;;;9.70;99.90;;;;;;5024606;28;20062;-72
2022/05/12 04:53:47;;;;;;;8.05;2.83;;;9.70;99.90;;;;;;5027961;28;20144;-72
2022/05/12 04:56:13;;;;;;;9.25;3.60;;;9.70;99.90;;;;;;5031313;28;20085;-72
2022/05/12 04:58:39;;;;;;;10.15;4.57;;;9.80;99.90;;;;;;5028508;28;20076;-72
2022/05/12 05:01:05;;;;;;;11.52;3.88;;;9.80;99.90;;;;;;5032560;28;20034;-72
2022/05/12 05:03:32;;;;;;;8.10;3.42;;;9.80;99.90;;;;;;5032583;28;20514;-72
2022/05/12 05:05:58;;;;;;;8.77;3.65;;;9.90;99.90;;;;;;5029127;28;20069;-72
2022/05/12 05:08:25;;;;;;;10.57;3.67;;;9.90;99.90;;;;;;5038029;28;20077;-73
2022/05/12 05:10:53;;;;;;;9.93;3.53;;;9.90;99.90;;;;;;5031357;28;20040;-73
2022/05/12 05:13:19;;;;;;;11.20;4.00;;;10.00;99.90;;;;;;5031883;28;20048;-73
2022/05/12 05:15:46;;;;;;;7.57;3.30;;;10.10;99.90;;;;;;5030350;28;20056;-72
2022/05/12 05:18:13;;;;;;;8.88;4.00;;;10.10;99.90;;;;;;5030971;28;20045;-73
2022/05/12 05:20:39;;;;;;;8.93;3.10;;;10.10;99.90;;;;;;5045053;28;20037;-73
2022/05/12 05:23:05;;;;;;;12.45;3.90;;;10.20;99.90;;;;;;5026268;28;20043;-73
2022/05/12 05:25:31;;;;;;;11.82;4.70;;;10.30;99.90;;;;;;5030630;28;20050;-73
2022/05/12 05:27:57;;;;;;;14.68;4.47;;;10.30;99.90;;;;;;5029118;28;20056;-73
2022/05/12 05:30:25;;;;;;;16.52;4.68;;;10.40;99.90;;;;;;5031094;28;20523;-73
2022/05/12 05:32:53;;;;;;;9.80;3.45;;;10.40;99.90;;;;;;5025357;28;20038;-73
2022/05/12 05:35:21;;;;;;;8.40;4.00;;;10.50;99.90;;;;;;5030744;28;20037;-73
2022/05/12 05:37:48;;;;;;;12.35;4.97;;;10.50;99.90;;;;;;5026884;28;20087;-73
2022/05/12 05:40:16;;;;;;;11.27;4.60;;;10.50;99.90;;;;;;5027911;28;20099;-73
2022/05/12 05:42:43;;;;;;;13.88;4.82;;;10.60;99.90;;;;;;5023236;28;20052;-73
2022/05/12 05:45:12;;;;;;;13.38;4.22;;;10.70;99.90;;;;;;5030900;28;20555;-73
2022/05/12 05:47:39;;;;;;;8.95;4.80;;;10.70;99.90;;;;;;5028709;28;20041;-73
2022/05/12 05:50:08;;;;;;;12.85;4.75;;;10.80;99.90;;;;;;5027787;28;20092;-73
2022/05/12 05:55:21;;;;;;;11.55;3.92;;;10.90;99.90;;;;;;5030676;28;20045;-73
2022/05/12 05:57:46;;;;;;;11.90;4.03;;;11.00;99.90;;;;;;5028241;28;20494;-73
2022/05/12 06:00:12;;;;;;;10.45;4.70;;;11.00;99.90;;;;;;5030302;28;20081;-73
2022/05/12 06:02:38;;;;;;;11.98;4.43;;;11.10;99.90;;;;;;5027257;28;20527;-75
2022/05/12 06:05:05;;;;;;;13.68;4.72;;;11.10;99.90;;;;;;5029949;28;20041;-73
2022/05/12 06:07:34;;;;;;;11.48;4.95;;;11.20;99.90;;;;;;5029474;28;20168;-73
2022/05/12 06:09:59;;;;;;;10.23;4.25;;;11.30;99.90;;;;;;5023130;28;20061;-73
2022/05/12 06:12:25;;;;;;;13.82;5.05;;;11.30;99.90;;;;;;5027439;28;20045;-73
2022/05/12 06:14:50;;;;;;;13.80;4.95;;;11.40;99.90;;;;;;5027132;28;20049;-73
2022/05/12 06:17:16;;;;;;;12.27;4.82;;;11.40;99.90;;;;;;5029976;28;20179;-73
2022/05/12 06:19:42;;;;;;;15.05;3.85;;;11.50;99.90;;;;;;5027762;28;20064;-74
2022/05/12 06:22:08;;;;;;;11.45;4.80;;;11.50;99.90;;;;;;5024802;28;20392;-74
2022/05/12 06:24:34;;;;;;;9.48;5.30;;;11.60;99.90;;;;;;5023704;28;20041;-73
2022/05/12 06:27:00;;;;;;;14.80;4.93;;;11.60;99.90;;;;;;5028435;28;20049;-75
2022/05/12 06:29:26;;;;;;;11.00;4.95;;;11.70;99.90;;;;;;5024441;28;20052;-71
2022/05/12 06:31:51;;;;;;;11.63;4.05;;;11.70;99.90;;;;;;5024028;28;20392;-71
2022/05/12 06:34:17;;;;;;;12.95;5.05;;;11.80;99.90;;;;;;5028244;28;20046;-71
2022/05/12 06:36:44;;;;;;;11.38;4.60;;;11.90;99.90;;;;;;5028591;28;20430;-71
2022/05/12 06:39:09;;;;;;;12.90;4.30;;;11.90;99.90;;;;;;5025161;28;20643;-71
2022/05/12 06:41:35;;;;;;;11.88;5.15;;;12.00;99.90;;;;;;5030380;28;20052;-71
2022/05/12 06:44:01;;;;;;;11.40;4.55;;;12.00;99.90;;;;;;5049669;28;20049;-72
2022/05/12 06:46:27;;;;;;;13.20;4.95;;;12.10;99.90;;;;;;5026753;28;20075;-72
2022/05/12 06:48:53;;;;;;;12.90;4.60;;;12.10;99.90;;;;;;5026102;28;20571;-71
2022/05/12 06:51:20;;;;;;;11.38;4.00;;;12.20;99.90;;;;;;5032080;28;20136;-72
2022/05/12 06:53:47;;;;;;;15.60;5.00;;;12.20;99.90;;;;;;5021495;28;20136;-69
2022/05/12 06:56:12;;;;;;;10.65;3.92;;;12.30;99.90;;;;;;5028529;28;20573;-70
2022/05/12 06:58:38;;;;;;;12.05;3.85;;;12.40;99.90;;;;;;5062239;28;20147;-71
2022/05/12 07:01:05;;;;;;;10.05;3.47;;;12.40;99.90;;;;;;5024394;28;20121;-71
2022/05/12 07:03:31;;;;;;;9.48;3.85;;;12.50;99.90;;;;;;5030387;28;20056;-71
2022/05/12 07:05:58;;;;;;;10.98;4.45;;;12.60;99.90;;;;;;5029263;28;20073;-71
2022/05/12 07:08:24;;;;;;;11.25;3.70;;;12.70;99.90;;;;;;5030014;28;20065;-71
2022/05/12 07:10:50;;;;;;;8.73;3.40;;;12.80;99.90;;;;;;5013613;28;20042;-71
2022/05/12 07:13:20;;;;;;;8.13;3.33;;;12.90;99.90;;;;;;5023795;28;20055;-71
2022/05/12 07:15:47;;;;;;;11.75;3.67;;;13.00;99.90;;;;;;5015264;28;20124;-70
2022/05/12 07:18:14;;;;;;;8.63;3.10;;;13.20;99.90;;;;;;5009640;28;20080;-70
2022/05/12 07:28:56;;;;;;;12.13;3.17;;;14.30;99.90;;;;;;5027712;28;20061;-70
2022/05/12 07:31:22;;;;;;;9.27;2.85;;;14.60;99.90;;;;;;5034584;28;20053;-71
2022/05/12 07:33:48;;;;;;;9.95;2.58;;;14.80;99.90;;;;;;5033258;28;20061;-70
2022/05/12 07:36:25;;;;;;;6.40;1.98;;;15.00;99.90;;;;;;5021433;28;20046;-69
2022/05/12 07:38:51;;;;;;;9.82;2.42;;;15.20;99.90;;;;;;5042380;28;20087;-73
2022/05/12 07:41:18;;;;;;;8.73;2.20;;;15.30;99.90;;;;;;5028818;28;20195;-73
2022/05/12 07:43:45;;;;;;;7.75;2.47;;;15.30;99.90;;;;;;5051869;28;20516;-74
2022/05/12 07:46:15;;;;;;;10.82;2.63;;;15.40;99.90;;;;;;5050999;28;20049;-74
2022/05/12 07:48:42;;;;;;;7.72;1.90;;;15.50;99.90;;;;;;5023688;28;20056;-74
2022/05/12 07:51:08;;;;;;;6.82;1.88;;;15.60;99.90;;;;;;5032273;28;20148;-74
2022/05/12 07:53:34;;;;;;;8.82;2.95;;;15.60;99.90;;;;;;5024248;28;20088;-73
2022/05/12 07:56:03;;;;;;;9.55;2.35;;;15.70;99.90;;;;;;5028917;28;20049;-73
2022/05/12 07:58:30;;;;;;;6.38;2.17;;;15.70;99.90;;;;;;5028712;28;20497;-74
2022/05/12 08:00:56;;;;;;;7.82;1.60;;;15.70;99.90;;;;;;5022183;28;20045;-74
2022/05/12 08:03:22;;;;;;;7.68;1.98;;;15.80;99.90;;;;;;5030653;28;20045;-74
2022/05/12 08:05:48;;;;;;;5.90;1.75;;;15.90;99.90;;;;;;5012531;28;20049;-74
2022/05/12 08:08:14;;;;;;;7.95;2.20;;;15.90;99.90;;;;;;5013527;28;20041;-74
2022/05/12 08:10:40;;;;;;;11.95;3.15;;;15.90;99.90;;;;;;5029848;28;20069;-74
2022/05/12 08:13:07;;;;;;;6.40;1.92;;;15.90;99.90;;;;;;5010798;28;20501;-74
2022/05/12 08:15:33;;;;;;;8.25;2.10;;;16.00;99.90;;;;;;5021547;28;20123;-74
2022/05/12 08:17:59;;;;;;;7.15;1.67;;;16.20;99.90;;;;;;5028872;28;20488;-74
2022/05/12 08:20:25;;;;;;;6.43;1.60;;;16.20;99.90;;;;;;5025117;28;20041;-74
2022/05/12 08:22:53;;;;;;;8.43;1.45;;;16.10;99.90;;;;;;5012520;28;20057;-74
2022/05/12 08:25:19;;;;;;;6.07;1.95;;;16.10;99.90;;;;;;5021185;28;20050;-74
2022/05/12 08:27:45;;;;;;;6.82;1.55;;;16.20;99.90;;;;;;5008788;28;20412;-73
2022/05/12 08:30:15;;;;;;;9.13;1.60;;;16.40;99.90;;;;;;5012621;28;20057;-73
2022/05/12 08:32:41;;;;;;;7.30;1.30;;;16.60;99.90;;;;;;5014324;28;20144;-74
2022/05/12 08:35:07;;;;;;;7.35;1.88;;;16.80;99.90;;;;;;5022866;28;20132;-74
2022/05/12 08:37:33;;;;;;;5.78;1.40;;;16.80;99.90;;;;;;5050957;28;20042;-75
2022/05/12 08:40:03;;;;;;;5.97;1.40;;;16.80;99.90;;;;;;5024989;28;20103;-74
2022/05/12 08:42:36;;;;;;;6.40;1.23;;;16.80;99.90;;;;;;5025663;28;20103;-74
2022/05/12 08:45:04;;;;;;;5.95;1.42;;;16.70;99.90;;;;;;5026255;28;20081;-73
2022/05/12 08:47:35;;;;;;;6.40;1.02;;;16.70;99.90;;;;;;5030511;28;20038;-73
2022/05/12 08:50:02;;;;;;;6.82;1.20;;;16.60;99.90;;;;;;5029034;28;20053;-74
2022/05/12 08:52:42;;;;;;;8.18;1.80;;;16.60;99.90;;;;;;5008793;28;20068;-73
2022/05/12 08:55:15;;;;;;;9.73;1.52;;;16.50;99.90;;;;;;5023957;28;20100;-73
2022/05/12 08:58:04;;;;;;;8.20;1.10;;;16.50;99.90;;;;;;5021715;28;20080;-72
2022/05/12 09:00:50;;;;;;;7.47;1.60;;;16.50;99.90;;;;;;5027311;28;20045;-72
2022/05/12 09:03:48;;;;;;;5.95;1.08;;;16.70;99.90;;;;;;5011449;28;20045;-72
2022/05/12 09:06:25;;;;;;;6.60;1.35;;;17.00;99.90;;;;;;5026129;28;20096;-72
2022/05/12 09:09:21;;;;;;;5.80;1.02;;;17.20;99.90;;;;;;5027822;28;20045;-72
2022/05/12 09:12:14;;;;;;;5.75;1.00;;;17.50;99.90;;;;;;5024761;28;20092;-73
2022/05/12 09:15:01;;;;;;;10.55;1.95;;;17.70;99.90;;;;;;5023650;28;20898;-73
2022/05/12 09:17:43;;;;;;;5.97;1.35;;;18.00;99.90;;;;;;5028939;28;20056;-73
2022/05/12 09:20:11;;;;;;;5.13;1.13;;;18.30;99.90;;;;;;5029481;28;20176;-72
2022/05/12 09:22:39;;;;;;;5.05;0.90;;;18.50;99.90;;;;;;5014883;28;20553;-71
2022/05/12 09:25:06;;;;;;;9.55;1.48;;;18.70;99.90;;;;;;5024623;28;20438;-71
2022/05/12 09:27:35;;;;;;;5.40;1.10;;;18.50;99.50;;;;;;5028079;28;20132;-70
2022/05/12 09:30:02;;;;;;;3.97;1.25;;;18.40;99.60;;;;;;5011549;28;20486;-70
2022/05/12 09:32:37;;;;;;;8.32;1.83;;;18.40;99.70;;;;;;5037008;28;20045;-72
2022/05/12 09:35:09;;;;;;;4.00;0.90;;;18.50;99.80;;;;;;5029398;28;20045;-72
2022/05/12 09:37:40;;;;;;;24.65;2.13;;;18.80;99.10;;;;;;5011614;28;20046;-73
2022/05/12 09:40:31;;;;;;;4.20;1.25;;;19.00;98.90;;;;;;5028798;28;20050;-70
2022/05/12 09:43:01;;;;;;;15.10;1.70;;;19.20;98.20;;;;;;5031132;28;20539;-73
2022/05/12 09:45:36;;;;;;;10.30;1.60;;;19.20;98.50;;;;;;5029442;28;20045;-72
2022/05/12 09:48:09;;;;;;;20.65;2.35;;;19.10;98.20;;;;;;5031840;28;20475;-73
2022/05/12 09:50:35;;;;;;;9.80;1.00;;;18.80;97.40;;;;;;5023845;28;20061;-73
2022/05/12 09:53:05;;;;;;;8.82;1.77;;;18.60;97.70;;;;;;5024813;28;20060;-73
2022/05/12 09:55:36;;;;;;;12.68;1.45;;;18.60;97.40;;;;;;5013419;28;20916;-72
2022/05/12 09:58:14;;;;;;;5.68;1.02;;;18.60;96.10;;;;;;5014270;28;20053;-73
2022/05/12 10:00:43;;;;;;;6.95;1.40;;;18.60;96.80;;;;;;5031786;28;20041;-73
2022/05/12 10:09:15;;;;;;;5.60;1.10;;;18.60;95.70;;;;;;5031127;28;20053;-73
2022/05/12 10:12:02;;;;;;;6.43;1.30;;;18.80;95.60;;;;;;5033172;28;20049;-73
2022/05/12 10:14:49;;;;;;;6.22;1.10;;;18.90;95.00;;;;;;5032255;28;20510;-75
2022/05/12 10:17:41;;;;;;;3.83;1.05;;;19.00;95.30;;;;;;5007320;28;20091;-76
2022/05/12 10:20:18;;;;;;;6.88;1.42;;;18.80;94.80;;;;;;5012455;28;20049;-75
2022/05/12 10:22:59;;;;;;;5.22;1.08;;;18.70;95.10;;;;;;5014583;28;20135;-75
2022/05/12 10:26:02;;;;;;;8.93;1.25;;;18.70;95.50;;;;;;5024329;28;20131;-75
2022/05/12 10:28:48;;;;;;;5.43;1.40;;;18.60;94.90;;;;;;5026544;28;20049;-76
2022/05/12 10:31:23;;;;;;;4.63;1.20;;;18.60;94.60;;;;;;5021030;28;20053;-76
2022/05/12 10:34:00;;;;;;;7.40;1.48;;;18.40;94.10;;;;;;5035858;28;20120;-76
2022/05/12 10:36:53;;;;;;;6.38;1.10;;;18.20;94.70;;;;;;5047996;28;20046;-74
2022/05/12 10:39:46;;;;;;;3.95;0.90;;;18.20;95.80;;;;;;5016181;28;20128;-74
2022/05/12 10:42:33;;;;;;;4.78;1.00;;;18.30;94.00;;;;;;5024476;28;20124;-73
2022/05/12 10:45:25;;;;;;;7.13;1.00;;;18.40;93.60;;;;;;5011078;28;20403;-75
2022/05/12 10:48:08;;;;;;;4.60;0.90;;;18.30;93.70;;;;;;5027987;28;20058;-75
2022/05/12 10:50:48;;;;;;;12.85;0.98;;;18.20;93.70;;;;;;5033896;28;20056;-74
2022/05/12 10:53:39;;;;;;;4.20;1.00;;;18.10;94.50;;;;;;5023674;28;20037;-74
2022/05/12 10:56:34;;;;;;;4.43;0.90;;;18.00;94.50;;;;;;5054804;28;20473;-75
2022/05/12 10:59:17;;;;;;;5.55;0.98;;;18.10;93.20;;;;;;5029865;28;20396;-73
2022/05/12 11:02:10;;;;;;;4.65;1.10;;;18.30;94.50;;;;;;5029784;28;20145;-74
2022/05/12 11:04:41;;;;;;;6.72;1.20;;;18.30;94.00;;;;;;5018154;28;20046;-74
2022/05/12 11:07:35;;;;;;;4.95;1.00;;;18.30;93.40;;;;;;5012107;28;20053;-75
2022/05/12 11:10:19;;;;;;;5.82;1.08;;;18.20;94.30;;;;;;5026394;28;20050;-74
2022/05/12 11:12:52;;;;;;;5.72;1.10;;;18.00;93.50;;;;;;5026780;28;20045;-74
2022/05/12 11:15:27;;;;;;;3.67;0.77;;;18.00;93.80;;;;;;5043008;28;20053;-75
2022/05/12 11:18:04;;;;;;;7.93;1.20;;;18.00;93.90;;;;;;5018256;28;20405;-75
2022/05/12 11:20:43;;;;;;;6.28;1.33;;;18.10;94.60;;;;;;5009677;28;20054;-74
2022/05/12 11:23:45;;;;;;;6.72;1.00;;;18.30;94.10;;;;;;5008286;28;20046;-74
2022/05/12 11:26:32;;;;;;;4.38;1.02;;;18.50;93.40;;;;;;5030208;28;20044;-74
2022/05/12 11:32:21;;;;;;;6.35;0.90;;;19.00;93.20;;;;;;5033823;28;20497;-74
2022/05/12 11:35:05;;;;;;;5.00;0.93;;;19.00;92.20;;;;;;5031221;28;20116;-74
2022/05/12 11:37:40;;;;;;;6.63;0.98;;;18.90;92.70;;;;;;5010908;28;20131;-75
2022/05/12 11:40:06;;;;;;;5.72;1.08;;;18.90;93.30;;;;;;5022203;28;20038;-75
2022/05/12 11:45:38;;;;;;;5.47;1.20;;;18.90;92.90;;;;;;5031292;28;20049;-75
2022/05/12 11:48:15;;;;;;;5.28;1.13;;;18.90;93.20;;;;;;5030029;28;20053;-75
2022/05/12 11:51:05;;;;;;;6.22;1.10;;;19.00;93.30;;;;;;5021308;28;20128;-75
2022/05/12 11:53:56;;;;;;;6.40;0.98;;;18.90;91.90;;;;;;5030891;28;20044;-75
2022/05/12 11:56:46;;;;;;;4.80;1.02;;;19.00;92.40;;;;;;5046028;28;20084;-75
2022/05/12 11:59:43;;;;;;;4.75;0.98;;;19.10;91.40;;;;;;5026366;28;20061;-78
2022/05/12 12:02:27;;;;;;;5.85;1.05;;;19.20;91.40;;;;;;5029708;28;20045;-78
2022/05/12 12:04:59;;;;;;;3.75;0.70;;;19.00;91.80;;;;;;5030452;28;20095;-78
2022/05/12 12:07:30;;;;;;;5.78;0.90;;;19.10;91.20;;;;;;5029846;28;20163;-77
2022/05/12 12:10:05;;;;;;;3.55;1.02;;;19.30;92.90;;;;;;5010965;28;20103;-75
2022/05/12 12:12:43;;;;;;;3.78;0.93;;;19.50;91.50;;;;;;5011130;28;20065;-75
2022/05/12 12:15:24;;;;;;;5.10;0.88;;;19.80;90.00;;;;;;5053420;28;20087;-76
2022/05/12 12:17:51;;;;;;;5.60;0.73;;;19.90;88.00;;;;;;5025843;28;20042;-76
2022/05/12 12:20:29;;;;;;;4.28;0.80;;;19.80;89.40;;;;;;5025554;28;20126;-77
2022/05/12 12:23:22;;;;;;;4.72;1.00;;;19.60;89.40;;;;;;5025198;28;20492;-76
2022/05/12 12:26:10;;;;;;;6.53;1.17;;;19.60;90.00;;;;;;5011094;28;20117;-76
2022/05/12 12:28:59;;;;;;;5.35;0.90;;;19.70;89.40;;;;;;5029284;28;20050;-77
2022/05/12 12:31:26;;;;;;;6.13;1.30;;;19.90;89.70;;;;;;5033536;28;20044;-77
2022/05/12 12:34:07;;;;;;;4.32;0.75;;;20.00;90.00;;;;;;5024292;28;20052;-76
2022/05/12 12:36:35;;;;;;;3.67;0.80;;;20.00;89.30;;;;;;5030520;28;20052;-76
2022/05/12 12:39:01;;;;;;;5.13;0.90;;;20.00;89.70;;;;;;5028883;28;20378;-78
2022/05/12 12:41:29;;;;;;;4.95;1.13;;;19.90;89.40;;;;;;5021314;28;20057;-74
2022/05/12 12:44:09;;;;;;;6.65;1.00;;;19.70;88.70;;;;;;5025942;28;20048;-74
2022/05/12 12:47:07;;;;;;;4.30;1.10;;;19.80;90.20;;;;;;5019886;28;20054;-76
2022/05/12 12:50:03;;;;;;;3.63;0.80;;;20.00;89.90;;;;;;5031351;28;20496;-76
2022/05/12 12:52:28;;;;;;;5.80;0.77;;;20.30;86.20;;;;;;5010585;28;20045;-75
2022/05/12 12:57:51;;;;;;;4.20;1.05;;;20.10;86.50;;;;;;5028322;28;20045;-76
2022/05/12 13:00:23;;;;;;;5.18;0.88;;;20.10;86.50;;;;;;5013585;28;20045;-77
2022/05/12 13:02:56;;;;;;;3.65;0.80;;;20.20;86.60;;;;;;5023364;28;20054;-77
2022/05/12 13:05:22;;;;;;;4.15;1.15;;;20.20;87.60;;;;;;5026707;28;20088;-76
2022/05/12 13:07:57;;;;;;;5.93;0.80;;;20.40;85.50;;;;;;5037209;28;20051;-77
2022/05/12 13:10:23;;;;;;;4.18;0.80;;;20.60;86.30;;;;;;5030156;28;20049;-77
2022/05/12 13:13:02;;;;;;;5.85;1.00;;;20.80;86.00;;;;;;5011765;28;20048;-76
2022/05/12 13:15:32;;;;;;;4.53;1.08;;;20.90;85.20;;;;;;5014649;28;20366;-76
2022/05/12 13:18:00;;;;;;;5.15;0.98;;;20.90;85.50;;;;;;5027991;28;20085;-74
2022/05/12 13:20:32;;;;;;;7.88;1.40;;;20.90;86.00;;;;;;5031157;28;20049;-76
2022/05/12 13:23:07;;;;;;;4.22;0.80;;;20.80;85.20;;;;;;5026687;28;20700;-77
2022/05/12 13:25:36;;;;;;;4.22;1.02;;;20.70;84.30;;;;;;5031298;28;20098;-77
2022/05/12 13:28:06;;;;;;;6.30;1.17;;;20.60;83.80;;;;;;5028725;28;20064;-75
2022/05/12 13:30:46;;;;;;;6.25;1.35;;;20.40;82.20;;;;;;5031181;28;20552;-75
2022/05/12 13:33:26;;;;;;;8.10;0.90;;;20.40;84.30;;;;;;5030028;28;20045;-76